createdAt,value
2023-02-12T00:01:38.573Z,100294.97
2023-02-12T00:04:05.156Z,100305.81
2023-02-12T00:06:31.971Z,100311.28
2023-02-12T00:08:59.346Z,100306.41
2023-02-12T00:11:28.236Z,100303.25
2023-02-12T00:21:33.504Z,100316.19
2023-02-12T00:24:00.135Z,100317.25
2023-02-12T00:26:26.763Z,100316.63
2023-02-12T00:31:33.246Z,100311.00
2023-02-12T00:34:00.552Z,100318.13
2023-02-12T00:36:29.589Z,100316.84
2023-02-12T00:38:57.236Z,100319.31
2023-02-12T00:41:24.357Z,100317.41
2023-02-12T00:43:51.580Z,100335.56
2023-02-12T00:46:18.887Z,100325.00
2023-02-12T00:48:45.593Z,100321.81
2023-02-12T00:51:12.273Z,100328.31
2023-02-12T00:53:38.964Z,100330.47
2023-02-12T00:56:06.084Z,100331.53
2023-02-12T00:58:32.902Z,100325.00
2023-02-12T01:03:32.900Z,100326.16
2023-02-12T01:05:59.448Z,100333.13
2023-02-12T01:08:26.242Z,100323.22
2023-02-12T01:10:58.339Z,100324.78
2023-02-12T01:13:26.077Z,100329.69
2023-02-12T01:18:44.865Z,100322.53
2023-02-12T01:21:15.170Z,100318.22
2023-02-12T01:23:42.949Z,100312.22
2023-02-12T01:26:11.749Z,100318.38
2023-02-12T01:28:42.833Z,100323.91
2023-02-12T01:31:15.066Z,100324.75
2023-02-12T01:33:43.528Z,100322.59
2023-02-12T01:36:11.371Z,100325.16
2023-02-12T01:38:37.924Z,100317.03
2023-02-12T01:41:11.610Z,100318.41
2023-02-12T01:43:38.807Z,100317.34
2023-02-12T01:46:06.749Z,100312.53
2023-02-12T01:48:39.097Z,100306.88
2023-02-12T01:51:09.572Z,100313.19
2023-02-12T01:53:41.227Z,100313.94
2023-02-12T01:56:09.688Z,100310.00
2023-02-12T01:58:40.025Z,100314.19
2023-02-12T02:01:09.870Z,100314.78
2023-02-12T02:06:20.032Z,100323.78
2023-02-12T02:08:47.075Z,100313.88
2023-02-12T02:11:32.059Z,100308.44
2023-02-12T02:14:17.299Z,100302.97
2023-02-12T02:16:51.967Z,100301.97
2023-02-12T02:20:09.579Z,100302.44
2023-02-12T02:22:50.123Z,100296.66
2023-02-12T02:25:42.369Z,100299.50
2023-02-12T02:28:32.904Z,100296.50
2023-02-12T02:31:02.249Z,100294.53
2023-02-12T02:33:51.431Z,100283.44
2023-02-12T02:37:00.210Z,100287.03
2023-02-12T02:39:41.085Z,100281.56
2023-02-12T02:42:37.191Z,100280.47
2023-02-12T02:45:13.582Z,100289.88
2023-02-12T02:47:45.843Z,100292.94
2023-02-12T02:50:16.875Z,100293.56
2023-02-12T02:55:36.060Z,100286.56
2023-02-12T02:58:25.450Z,100288.31
2023-02-12T03:03:38.385Z,100288.16
2023-02-12T03:06:13.696Z,100289.53
2023-02-12T03:08:47.066Z,100289.22
2023-02-12T03:11:25.482Z,100289.78
2023-02-12T03:14:13.724Z,100288.06
2023-02-12T03:16:47.528Z,100294.59
2023-02-12T03:19:31.545Z,100294.84
2023-02-12T03:22:03.297Z,100302.25
2023-02-12T03:24:46.614Z,100296.31
2023-02-12T03:27:26.561Z,100296.72
2023-02-12T03:29:53.254Z,100304.06
2023-02-12T03:32:36.294Z,100296.38
2023-02-12T03:38:16.607Z,100293.72
2023-02-12T03:41:06.846Z,100291.56
2023-02-12T03:43:56.078Z,100291.56
2023-02-12T03:46:27.725Z,100294.38
2023-02-12T03:49:16.401Z,100296.94
2023-02-12T03:51:45.098Z,100302.31
2023-02-12T03:54:15.884Z,100300.16
2023-02-12T03:56:52.233Z,100305.56
2023-02-12T03:59:20.216Z,100310.84
2023-02-12T04:01:49.075Z,100302.69
2023-02-12T04:04:16.506Z,100312.16
2023-02-12T04:06:43.802Z,100313.38
2023-02-12T04:09:12.854Z,100312.75
2023-02-12T04:11:54.172Z,100307.34
2023-02-12T04:14:25.156Z,100318.25
2023-02-12T04:17:03.539Z,100327.94
2023-02-12T04:20:04.375Z,100325.28
2023-02-12T04:22:54.017Z,100317.22
2023-02-12T04:25:42.433Z,100325.06
2023-02-12T04:28:27.611Z,100317.38
2023-02-12T04:31:06.491Z,100325.47
2023-02-12T04:33:41.469Z,100332.25
2023-02-12T04:36:20.997Z,100333.38
2023-02-12T04:38:54.062Z,100334.63
2023-02-12T04:41:20.879Z,100337.63
2023-02-12T04:43:47.449Z,100342.47
2023-02-12T04:46:14.132Z,100341.75
2023-02-12T04:48:58.833Z,100333.03
2023-02-12T04:51:25.580Z,100340.03
2023-02-12T04:53:52.173Z,100336.06
2023-02-12T04:56:18.792Z,100333.25
2023-02-12T04:58:45.507Z,100334.63
2023-02-12T05:03:49.645Z,100330.81
2023-02-12T05:06:16.250Z,100330.28
2023-02-12T05:08:42.836Z,100332.31
2023-02-12T05:11:11.631Z,100330.03
2023-02-12T05:13:38.844Z,100331.00
2023-02-12T05:16:07.318Z,100325.59
2023-02-12T05:18:34.865Z,100325.00
2023-02-12T05:23:36.915Z,100327.34
2023-02-12T05:26:06.715Z,100332.22
2023-02-12T05:28:33.440Z,100329.47
2023-02-12T05:31:02.102Z,100332.75
2023-02-12T05:33:28.803Z,100332.19
2023-02-12T05:35:55.971Z,100325.16
2023-02-12T05:38:22.965Z,100331.16
2023-02-12T05:40:49.526Z,100334.16
2023-02-12T05:43:16.113Z,100332.81
2023-02-12T05:45:45.130Z,100330.59
2023-02-12T05:48:11.742Z,100332.78
2023-02-12T05:50:38.366Z,100329.41
2023-02-12T05:53:04.946Z,100333.19
2023-02-12T05:55:31.581Z,100333.09
2023-02-12T05:57:58.202Z,100339.91
2023-02-12T06:00:25.079Z,100340.47
2023-02-12T06:02:51.751Z,100330.72
2023-02-12T06:05:18.468Z,100335.94
2023-02-12T06:10:17.560Z,100332.75
2023-02-12T06:12:44.127Z,100334.28
2023-02-12T06:15:10.901Z,100338.91
2023-02-12T06:17:37.544Z,100334.03
2023-02-12T06:20:04.615Z,100342.69
2023-02-12T06:22:31.242Z,100343.78
2023-02-12T06:24:57.807Z,100353.56
2023-02-12T06:27:24.356Z,100341.59
2023-02-12T06:29:50.932Z,100340.03
2023-02-12T06:32:17.816Z,100344.63
2023-02-12T06:34:44.536Z,100347.81
2023-02-12T06:37:12.096Z,100347.88
2023-02-12T06:39:38.766Z,100350.81
2023-02-12T06:42:05.463Z,100360.22
2023-02-12T06:44:32.077Z,100369.00
2023-02-12T06:46:59.297Z,100363.56
2023-02-12T06:51:57.652Z,100360.34
2023-02-12T06:54:24.385Z,100369.81
2023-02-12T06:56:51.014Z,100368.97
2023-02-12T06:59:17.872Z,100363.75
2023-02-12T07:01:44.919Z,100372.41
2023-02-12T07:04:11.755Z,100370.25
2023-02-12T07:06:38.697Z,100365.16
2023-02-12T07:09:05.874Z,100371.88
2023-02-12T07:11:37.785Z,100368.84
2023-02-12T07:14:05.271Z,100381.00
2023-02-12T07:19:03.320Z,100373.41
2023-02-12T07:21:30.000Z,100380.03
2023-02-12T07:23:56.650Z,100378.72
2023-02-12T07:26:23.533Z,100377.09
2023-02-12T07:28:52.293Z,100378.75
2023-02-12T07:31:22.035Z,100379.06
2023-02-12T07:33:49.494Z,100380.72
2023-02-12T07:36:20.585Z,100381.94
2023-02-12T07:38:48.210Z,100381.00
2023-02-12T07:41:20.677Z,100385.50
2023-02-12T07:43:49.474Z,100376.00
2023-02-12T07:46:19.143Z,100376.03
2023-02-12T07:48:47.049Z,100382.13
2023-02-12T07:51:16.197Z,100388.19
2023-02-12T07:53:43.216Z,100388.72
2023-02-12T07:56:12.311Z,100388.13
2023-02-12T07:58:40.432Z,100388.91
2023-02-12T08:01:15.825Z,100388.66
2023-02-12T08:03:43.284Z,100372.91
2023-02-12T08:06:16.751Z,100376.38
2023-02-12T08:11:15.939Z,100383.16
2023-02-12T08:13:43.201Z,100386.09
2023-02-12T08:16:13.531Z,100375.72
2023-02-12T08:18:40.916Z,100376.81
2023-02-12T08:21:21.462Z,100376.22
2023-02-12T08:26:42.949Z,100370.31
2023-02-12T08:29:13.260Z,100371.41
2023-02-12T08:31:46.183Z,100366.81
2023-02-12T08:34:20.235Z,100373.50
2023-02-12T08:36:48.493Z,100369.31
2023-02-12T08:39:15.404Z,100367.81
2023-02-12T08:41:45.159Z,100371.00
2023-02-12T08:44:13.331Z,100365.63
2023-02-12T08:49:20.930Z,100365.13
2023-02-12T08:51:50.053Z,100365.13
2023-02-12T08:54:20.712Z,100365.03
2023-02-12T08:56:47.451Z,100371.63
2023-02-12T08:59:16.166Z,100375.00
2023-02-12T09:01:44.191Z,100380.69
2023-02-12T09:04:21.608Z,100382.06
2023-02-12T09:06:49.831Z,100385.91
2023-02-12T09:09:16.836Z,100382.88
2023-02-12T09:11:44.879Z,100380.75
2023-02-12T09:14:16.794Z,100378.03
2023-02-12T09:16:44.146Z,100384.78
2023-02-12T09:19:13.596Z,100387.44
2023-02-12T09:21:40.335Z,100374.38
2023-02-12T09:24:07.176Z,100377.03
2023-02-12T09:26:33.852Z,100369.00
2023-02-12T09:29:02.552Z,100373.53
2023-02-12T09:31:31.313Z,100372.25
2023-02-12T09:34:01.170Z,100371.19
2023-02-12T09:36:28.581Z,100374.19
2023-02-12T09:41:46.731Z,100371.94
2023-02-12T09:44:45.408Z,100377.22
2023-02-12T09:47:40.143Z,100371.97
2023-02-12T09:50:30.600Z,100374.06
2023-02-12T09:52:59.343Z,100373.66
2023-02-12T09:55:30.342Z,100390.41
2023-02-12T09:57:57.154Z,100382.16
2023-02-12T10:00:31.229Z,100386.75
2023-02-12T10:03:05.003Z,100381.03
2023-02-12T10:05:35.723Z,100380.44
2023-02-12T10:08:52.793Z,100377.34
2023-02-12T10:11:35.294Z,100385.59
2023-02-12T10:14:21.844Z,100371.09
2023-02-12T10:17:00.463Z,100375.00
2023-02-12T10:19:45.479Z,100375.00
2023-02-12T10:22:28.445Z,100375.50
2023-02-12T10:25:18.541Z,100376.53
2023-02-12T10:27:50.506Z,100374.91
2023-02-12T10:30:22.135Z,100370.25
2023-02-12T10:32:53.003Z,100373.91
2023-02-12T10:35:21.947Z,100371.59
2023-02-12T10:37:54.248Z,100374.84
2023-02-12T10:40:27.747Z,100375.22
2023-02-12T10:42:54.689Z,100366.03
2023-02-12T10:45:29.328Z,100372.03
2023-02-12T10:48:06.015Z,100376.75
2023-02-12T10:50:51.288Z,100366.66
2023-02-12T10:53:24.216Z,100359.13
2023-02-12T10:56:10.742Z,100361.22
2023-02-12T10:58:40.052Z,100363.44
2023-02-12T11:01:17.922Z,100358.00
2023-02-12T11:03:44.485Z,100354.38
2023-02-12T11:06:20.126Z,100349.72
2023-02-12T11:08:46.902Z,100347.81
2023-02-12T11:11:20.912Z,100346.91
2023-02-12T11:13:56.532Z,100348.09
2023-02-12T11:16:40.592Z,100343.78
2023-02-12T11:19:18.284Z,100341.25
2023-02-12T11:21:44.990Z,100340.34
2023-02-12T11:24:26.701Z,100336.94
2023-02-12T11:27:19.615Z,100333.38
2023-02-12T11:29:49.767Z,100336.53
2023-02-12T11:32:18.672Z,100336.09
2023-02-12T11:35:08.812Z,100340.53
2023-02-12T11:37:41.414Z,100327.19
2023-02-12T11:40:16.764Z,100338.34
2023-02-12T11:42:49.472Z,100331.88
2023-02-12T11:45:19.961Z,100332.69
2023-02-12T11:47:47.864Z,100328.53
2023-02-12T11:50:24.688Z,100333.69
2023-02-12T11:52:53.970Z,100331.81
2023-02-12T11:55:34.999Z,100332.44
2023-02-12T11:58:13.576Z,100326.06
2023-02-12T12:00:49.161Z,100327.00
2023-02-12T12:03:23.095Z,100324.09
2023-02-12T12:05:52.752Z,100324.75
2023-02-12T12:08:29.676Z,100317.31
2023-02-12T12:11:19.363Z,100308.56
2023-02-12T12:14:04.194Z,100314.38
2023-02-12T12:17:15.742Z,100308.00
2023-02-12T12:23:03.513Z,100298.53
2023-02-12T12:25:52.648Z,100302.88
2023-02-12T12:28:39.538Z,100303.34
2023-02-12T12:31:21.232Z,100297.41
2023-02-12T12:34:11.766Z,100304.81
2023-02-12T12:39:18.811Z,100315.16
2023-02-12T12:41:52.317Z,100301.88
2023-02-12T12:44:38.480Z,100302.50
2023-02-12T12:47:27.845Z,100303.28
2023-02-12T12:50:33.377Z,100291.84
2023-02-12T12:53:19.073Z,100300.84
2023-02-12T12:56:08.237Z,100287.84
2023-02-12T13:01:58.360Z,100281.94
2023-02-12T13:04:32.848Z,100284.06
2023-02-12T13:07:02.127Z,100282.75
2023-02-12T13:09:57.328Z,100279.03
2023-02-12T13:12:36.167Z,100279.66
2023-02-12T13:15:37.665Z,100273.97
2023-02-12T13:18:09.968Z,100257.75
2023-02-12T13:20:48.940Z,100266.06
2023-02-12T13:23:24.472Z,100259.34
2023-02-12T13:26:04.224Z,100259.72
2023-02-12T13:28:52.865Z,100265.56
2023-02-12T13:31:34.561Z,100258.19
2023-02-12T13:34:07.178Z,100255.38
2023-02-12T13:36:36.776Z,100256.72
2023-02-12T13:39:32.241Z,100259.97
2023-02-12T13:42:08.820Z,100250.13
2023-02-12T13:45:01.948Z,100246.44
2023-02-12T13:47:45.542Z,100254.13
2023-02-12T13:50:30.779Z,100254.47
2023-02-12T13:53:07.823Z,100242.09
2023-02-12T13:55:46.731Z,100246.59
2023-02-12T13:58:32.057Z,100240.81
2023-02-12T14:01:03.987Z,100246.59
2023-02-12T14:03:31.930Z,100244.19
2023-02-12T14:06:18.636Z,100239.84
2023-02-12T14:08:51.023Z,100239.19
2023-02-12T14:11:24.660Z,100244.50
2023-02-12T14:13:55.472Z,100235.66
2023-02-12T14:16:31.035Z,100234.22
2023-02-12T14:19:35.297Z,100225.38
2023-02-12T14:22:09.845Z,100226.66
2023-02-12T14:24:36.362Z,100218.78
2023-02-12T14:27:17.618Z,100216.84
2023-02-12T14:30:07.929Z,100225.19
2023-02-12T14:32:57.905Z,100222.00
2023-02-12T14:35:30.070Z,100214.59
2023-02-12T14:38:16.591Z,100218.47
2023-02-12T14:40:45.522Z,100211.56
2023-02-12T14:43:32.074Z,100212.84
2023-02-12T14:46:23.511Z,100205.78
2023-02-12T14:49:06.026Z,100206.41
2023-02-12T14:51:45.006Z,100204.00
2023-02-12T14:54:42.452Z,100194.34
2023-02-12T14:57:20.162Z,100196.44
2023-02-12T14:59:49.222Z,100197.72
2023-02-12T15:02:25.968Z,100195.97
2023-02-12T15:04:55.266Z,100197.88
2023-02-12T15:07:43.603Z,100201.28
2023-02-12T15:10:17.612Z,100198.88
2023-02-12T15:13:10.508Z,100199.03
2023-02-12T15:15:49.403Z,100197.41
2023-02-12T15:18:24.602Z,100198.56
2023-02-12T15:20:59.720Z,100197.91
2023-02-12T15:23:39.581Z,100196.28
2023-02-12T15:26:12.377Z,100197.44
2023-02-12T15:28:40.136Z,100192.41
2023-02-12T15:31:11.508Z,100186.16
2023-02-12T15:33:45.764Z,100184.56
2023-02-12T15:36:18.307Z,100190.50
2023-02-12T15:38:49.610Z,100191.47
2023-02-12T15:41:34.178Z,100185.69
2023-02-12T15:44:04.152Z,100186.97
2023-02-12T15:51:49.787Z,100186.88
2023-02-12T15:54:20.277Z,100181.94
2023-02-12T15:56:47.194Z,100185.78
2023-02-12T15:59:25.172Z,100182.72
2023-02-12T16:02:02.405Z,100182.06
2023-02-12T16:04:34.311Z,100182.88
2023-02-12T16:07:01.904Z,100182.06
2023-02-12T16:09:34.054Z,100173.84
2023-02-12T16:12:03.732Z,100174.94
2023-02-12T16:14:44.899Z,100182.47
2023-02-12T16:17:29.432Z,100185.16
2023-02-12T16:20:06.756Z,100179.50
2023-02-12T16:22:41.160Z,100181.22
2023-02-12T16:25:33.231Z,100185.53
2023-02-12T16:28:18.964Z,100186.34
2023-02-12T16:30:48.545Z,100183.75
2023-02-12T16:36:30.596Z,100199.41
2023-02-12T16:39:05.306Z,100202.78
2023-02-12T16:41:34.154Z,100200.19
2023-02-12T16:44:00.746Z,100205.53
2023-02-12T16:46:33.287Z,100203.25
2023-02-12T16:49:01.448Z,100205.47
2023-02-12T16:51:28.195Z,100209.94
2023-02-12T16:53:57.847Z,100205.22
2023-02-12T16:56:29.952Z,100209.84
2023-02-12T16:58:58.957Z,100212.78
2023-02-12T17:01:34.200Z,100214.50
2023-02-12T17:04:04.494Z,100216.38
2023-02-12T17:06:32.235Z,100221.94
2023-02-12T17:08:59.766Z,100218.09
2023-02-12T17:11:28.162Z,100222.66
2023-02-12T17:13:55.765Z,100227.31
2023-02-12T17:16:31.882Z,100227.81
2023-02-12T17:19:00.186Z,100227.53
2023-02-12T17:24:21.168Z,100235.94
2023-02-12T17:26:50.549Z,100233.41
2023-02-12T17:29:18.255Z,100233.19
2023-02-12T17:31:45.470Z,100227.75
2023-02-12T17:34:12.204Z,100223.16
2023-02-12T17:36:38.830Z,100235.72
2023-02-12T17:39:07.219Z,100243.19
2023-02-12T17:41:34.173Z,100241.16
2023-02-12T17:44:01.120Z,100237.03
2023-02-12T17:49:06.633Z,100236.34
2023-02-12T17:51:33.242Z,100244.75
2023-02-12T17:53:59.837Z,100237.88
2023-02-12T17:56:26.385Z,100248.00
2023-02-12T17:58:53.138Z,100248.25
2023-02-12T18:01:22.615Z,100243.44
2023-02-12T18:03:52.341Z,100246.56
2023-02-12T18:06:28.417Z,100249.28
2023-02-12T18:08:57.096Z,100246.22
2023-02-12T18:11:24.227Z,100247.50
2023-02-12T18:13:58.683Z,100245.50
2023-02-12T18:16:27.668Z,100251.00
2023-02-12T18:18:54.901Z,100246.44
2023-02-12T18:21:21.720Z,100240.00
2023-02-12T18:23:48.402Z,100250.91
2023-02-12T18:26:17.352Z,100249.63
2023-02-12T18:28:44.538Z,100244.47
2023-02-12T18:31:12.226Z,100252.66
2023-02-12T18:33:39.215Z,100245.16
2023-02-12T18:36:09.641Z,100244.44
2023-02-12T18:38:38.392Z,100245.59
2023-02-12T18:41:23.805Z,100240.75
2023-02-12T18:43:50.518Z,100246.66
2023-02-12T18:46:24.520Z,100245.81
2023-02-12T18:48:52.020Z,100241.56
2023-02-12T18:51:22.683Z,100246.19
2023-02-12T18:53:57.221Z,100248.41
2023-02-12T18:56:23.960Z,100243.59
2023-02-12T18:58:55.246Z,100250.69
2023-02-12T19:04:02.525Z,100248.28
2023-02-12T19:06:30.808Z,100250.28
2023-02-12T19:08:59.635Z,100249.50
2023-02-12T19:11:27.926Z,100245.59
2023-02-12T19:13:55.165Z,100250.78
2023-02-12T19:16:23.885Z,100260.25
2023-02-12T19:18:52.015Z,100256.81
2023-02-12T19:21:19.055Z,100266.25
2023-02-12T19:23:45.748Z,100264.38
2023-02-12T19:26:15.611Z,100276.97
2023-02-12T19:28:43.294Z,100275.59
2023-02-12T19:31:37.728Z,100266.44
2023-02-12T19:34:07.218Z,100270.25
2023-02-12T19:36:36.044Z,100277.91
2023-02-12T19:39:04.811Z,100280.91
2023-02-12T19:41:33.056Z,100285.78
2023-02-12T19:44:01.515Z,100274.53
2023-02-12T19:49:02.842Z,100285.97
2023-02-12T19:51:30.609Z,100285.66
2023-02-12T19:54:02.394Z,100282.69
2023-02-12T19:56:29.439Z,100283.81
2023-02-12T19:58:57.512Z,100291.94
2023-02-12T20:03:58.955Z,100281.41
2023-02-12T20:06:29.848Z,100276.06
2023-02-12T20:08:56.978Z,100274.44
2023-02-12T20:11:25.813Z,100284.41
2023-02-12T20:13:52.937Z,100280.63
2023-02-12T20:16:22.575Z,100278.88
2023-02-12T20:18:51.377Z,100278.13
2023-02-12T20:21:20.930Z,100288.16
2023-02-12T20:23:47.628Z,100283.59
2023-02-12T20:26:14.971Z,100286.59
2023-02-12T20:33:57.036Z,100287.88
2023-02-12T20:36:24.402Z,100289.47
2023-02-12T20:38:58.447Z,100296.81
2023-02-12T20:41:26.959Z,100294.13
2023-02-12T20:43:53.902Z,100288.22
2023-02-12T20:46:23.362Z,100291.75
2023-02-12T20:48:50.130Z,100295.00
2023-02-12T20:51:19.529Z,100299.88
2023-02-12T20:53:46.886Z,100298.81
2023-02-12T20:56:25.284Z,100293.66
2023-02-12T20:58:52.619Z,100295.78
2023-02-12T21:01:25.693Z,100286.03
2023-02-12T21:03:55.165Z,100294.22
2023-02-12T21:06:23.561Z,100286.91
2023-02-12T21:08:51.460Z,100292.31
2023-02-12T21:11:22.005Z,100293.97
2023-02-12T21:13:58.891Z,100296.91
2023-02-12T21:16:33.470Z,100294.75
2023-02-12T21:19:00.462Z,100290.44
2023-02-12T21:21:29.623Z,100290.44
2023-02-12T21:23:58.337Z,100291.00
2023-02-12T21:26:27.239Z,100295.03
2023-02-12T21:28:56.114Z,100295.84
2023-02-12T21:31:29.163Z,100288.00
2023-02-12T21:33:57.704Z,100288.28
2023-02-12T21:36:26.689Z,100289.09
2023-02-12T21:38:53.345Z,100289.34
2023-02-12T21:41:23.559Z,100287.19
2023-02-12T21:43:52.657Z,100286.94
2023-02-12T21:46:21.753Z,100287.75
2023-02-12T21:51:27.169Z,100286.59
2023-02-12T21:54:06.211Z,100292.50
2023-02-12T21:56:32.937Z,100286.56
2023-02-12T21:58:59.717Z,100289.47
2023-02-12T22:01:33.206Z,100283.31
2023-02-12T22:04:01.497Z,100283.09
2023-02-12T22:06:28.090Z,100286.31
2023-02-12T22:08:56.790Z,100284.19
2023-02-12T22:11:23.501Z,100283.66
2023-02-12T22:13:50.117Z,100282.88
2023-02-12T22:16:18.153Z,100279.06
2023-02-12T22:18:46.259Z,100281.00
2023-02-12T22:21:15.306Z,100280.44
2023-02-12T22:23:43.274Z,100278.56
2023-02-12T22:26:14.212Z,100285.31
2023-02-12T22:28:43.282Z,100278.56
2023-02-12T22:31:12.381Z,100279.63
2023-02-12T22:33:39.167Z,100281.50
2023-02-12T22:36:08.260Z,100278.00
2023-02-12T22:38:36.181Z,100281.78
2023-02-12T22:41:03.292Z,100285.50
2023-02-12T22:46:02.210Z,100282.50
2023-02-12T22:48:29.682Z,100288.47
2023-02-12T22:50:57.651Z,100282.59
2023-02-12T22:53:25.336Z,100297.91
2023-02-12T22:58:29.982Z,100294.13
2023-02-12T23:00:56.989Z,100289.28
2023-02-12T23:03:23.810Z,100287.88
2023-02-12T23:05:50.348Z,100287.88
2023-02-12T23:08:16.913Z,100281.16
2023-02-12T23:10:43.951Z,100286.81
2023-02-12T23:13:13.543Z,100288.44
2023-02-12T23:15:45.111Z,100279.34
2023-02-12T23:18:11.651Z,100284.22
2023-02-12T23:20:39.909Z,100283.94
2023-02-12T23:23:06.478Z,100283.41
2023-02-12T23:25:33.003Z,100278.84
2023-02-12T23:27:59.696Z,100277.22
2023-02-12T23:30:26.444Z,100281.25
2023-02-12T23:32:53.079Z,100271.56
2023-02-12T23:35:19.727Z,100282.34
2023-02-12T23:37:46.271Z,100284.44
2023-02-12T23:40:13.555Z,100276.31
2023-02-12T23:42:40.971Z,100282.22
2023-02-12T23:45:09.176Z,100287.81
2023-02-12T23:47:35.845Z,100283.47
2023-02-12T23:50:02.368Z,100275.13
2023-02-12T23:52:28.900Z,100278.09
2023-02-12T23:54:56.868Z,100279.72
2023-02-12T23:57:23.482Z,100285.91
2023-02-12T23:59:50.165Z,100282.09
